sensor_id;sensor_type;location;lat;lon;timestamp;temperature;humidity
52669;DHT22;59898;52.786;6.892;2023-04-24T00:03:11;10.10;99.90
52669;DHT22;59898;52.786;6.892;2023-04-24T00:06:33;10.10;99.90
52669;DHT22;59898;52.786;6.892;2023-04-24T00:09:54;10.00;99.90
52669;DHT22;59898;52.786;6.892;2023-04-24T00:13:14;10.00;99.90
52669;DHT22;59898;52.786;6.892;2023-04-24T00:16:35;10.00;99.90
52669;DHT22;59898;52.786;6.892;2023-04-24T00:19:56;9.90;99.90
52669;DHT22;59898;52.786;6.892;2023-04-24T00:23:19;9.70;99.90
52669;DHT22;59898;52.786;6.892;2023-04-24T00:26:39;9.80;99.90
52669;DHT22;59898;52.786;6.892;2023-04-24T00:30:00;9.80;99.90
52669;DHT22;59898;52.786;6.892;2023-04-24T00:33:20;9.70;99.90
52669;DHT22;59898;52.786;6.892;2023-04-24T00:36:41;9.80;99.90
52669;DHT22;59898;52.786;6.892;2023-04-24T00:40:02;9.70;99.90
52669;DHT22;59898;52.786;6.892;2023-04-24T00:43:23;9.70;99.90
52669;DHT22;59898;52.786;6.892;2023-04-24T00:46:44;9.80;99.90
52669;DHT22;59898;52.786;6.892;2023-04-24T00:50:06;9.80;99.90
52669;DHT22;59898;52.786;6.892;2023-04-24T00:53:27;9.80;99.90
52669;DHT22;59898;52.786;6.892;2023-04-24T00:56:48;9.70;99.90
52669;DHT22;59898;52.786;6.892;2023-04-24T01:00:09;9.60;99.90
52669;DHT22;59898;52.786;6.892;2023-04-24T01:03:33;9.60;99.90
52669;DHT22;59898;52.786;6.892;2023-04-24T01:06:57;9.70;99.90
52669;DHT22;59898;52.786;6.892;2023-04-24T01:10:17;9.70;99.90
52669;DHT22;59898;52.786;6.892;2023-04-24T01:13:41;9.70;99.90
52669;DHT22;59898;52.786;6.892;2023-04-24T01:17:01;9.70;99.90
52669;DHT22;59898;52.786;6.892;2023-04-24T01:20:23;9.70;99.90
52669;DHT22;59898;52.786;6.892;2023-04-24T01:23:45;9.70;99.90
52669;DHT22;59898;52.786;6.892;2023-04-24T01:27:06;9.70;99.90
52669;DHT22;59898;52.786;6.892;2023-04-24T01:30:27;9.70;99.90
52669;DHT22;59898;52.786;6.892;2023-04-24T01:33:49;9.70;99.90
52669;DHT22;59898;52.786;6.892;2023-04-24T01:37:10;9.70;99.90
52669;DHT22;59898;52.786;6.892;2023-04-24T01:40:31;9.70;99.90
52669;DHT22;59898;52.786;6.892;2023-04-24T01:43:53;9.70;99.90
52669;DHT22;59898;52.786;6.892;2023-04-24T01:47:14;9.70;99.90
52669;DHT22;59898;52.786;6.892;2023-04-24T01:50:35;9.60;99.90
52669;DHT22;59898;52.786;6.892;2023-04-24T01:53:55;9.60;99.90
52669;DHT22;59898;52.786;6.892;2023-04-24T01:57:16;9.70;99.90
52669;DHT22;59898;52.786;6.892;2023-04-24T02:00:37;9.70;99.90
52669;DHT22;59898;52.786;6.892;2023-04-24T02:03:57;9.60;99.90
52669;DHT22;59898;52.786;6.892;2023-04-24T02:07:18;9.60;99.90
52669;DHT22;59898;52.786;6.892;2023-04-24T02:10:38;9.60;99.90
52669;DHT22;59898;52.786;6.892;2023-04-24T02:13:59;9.60;99.90
52669;DHT22;59898;52.786;6.892;2023-04-24T02:17:19;9.60;99.90
52669;DHT22;59898;52.786;6.892;2023-04-24T02:20:40;9.60;99.90
52669;DHT22;59898;52.786;6.892;2023-04-24T02:24:00;9.60;99.90
52669;DHT22;59898;52.786;6.892;2023-04-24T02:27:21;9.60;99.90
52669;DHT22;59898;52.786;6.892;2023-04-24T02:30:42;9.70;99.90
52669;DHT22;59898;52.786;6.892;2023-04-24T02:34:02;9.70;99.90
52669;DHT22;59898;52.786;6.892;2023-04-24T02:37:23;9.70;99.90
52669;DHT22;59898;52.786;6.892;2023-04-24T02:40:43;9.80;99.90
52669;DHT22;59898;52.786;6.892;2023-04-24T02:44:04;9.80;99.90
52669;DHT22;59898;52.786;6.892;2023-04-24T02:47:24;9.80;99.90
52669;DHT22;59898;52.786;6.892;2023-04-24T02:50:45;9.80;99.90
52669;DHT22;59898;52.786;6.892;2023-04-24T02:54:05;9.90;99.90
52669;DHT22;59898;52.786;6.892;2023-04-24T02:57:26;9.80;99.90
52669;DHT22;59898;52.786;6.892;2023-04-24T03:00:47;9.80;99.90
52669;DHT22;59898;52.786;6.892;2023-04-24T03:04:07;9.80;99.90
52669;DHT22;59898;52.786;6.892;2023-04-24T03:07:28;9.70;99.90
52669;DHT22;59898;52.786;6.892;2023-04-24T03:10:49;9.70;99.90
52669;DHT22;59898;52.786;6.892;2023-04-24T03:14:09;9.70;99.90
52669;DHT22;59898;52.786;6.892;2023-04-24T03:17:30;9.80;99.90
52669;DHT22;59898;52.786;6.892;2023-04-24T03:20:50;9.80;99.90
52669;DHT22;59898;52.786;6.892;2023-04-24T03:24:11;9.70;99.90
52669;DHT22;59898;52.786;6.892;2023-04-24T03:27:32;9.70;99.90
52669;DHT22;59898;52.786;6.892;2023-04-24T03:30:52;9.70;99.90
52669;DHT22;59898;52.786;6.892;2023-04-24T03:34:13;9.70;99.90
52669;DHT22;59898;52.786;6.892;2023-04-24T03:37:34;9.60;99.90
52669;DHT22;59898;52.786;6.892;2023-04-24T03:40:54;9.60;99.90
52669;DHT22;59898;52.786;6.892;2023-04-24T03:44:15;9.50;99.90
52669;DHT22;59898;52.786;6.892;2023-04-24T03:47:36;9.50;99.90
52669;DHT22;59898;52.786;6.892;2023-04-24T03:50:56;9.50;99.90
52669;DHT22;59898;52.786;6.892;2023-04-24T03:54:17;9.50;99.90
52669;DHT22;59898;52.786;6.892;2023-04-24T03:57:38;9.50;99.90
52669;DHT22;59898;52.786;6.892;2023-04-24T04:00:58;9.50;99.90
52669;DHT22;59898;52.786;6.892;2023-04-24T04:04:19;9.50;99.90
52669;DHT22;59898;52.786;6.892;2023-04-24T04:07:39;9.50;99.90
52669;DHT22;59898;52.786;6.892;2023-04-24T04:11:00;9.50;99.90
52669;DHT22;59898;52.786;6.892;2023-04-24T04:14:21;9.50;99.90
52669;DHT22;59898;52.786;6.892;2023-04-24T04:17:42;9.40;99.90
52669;DHT22;59898;52.786;6.892;2023-04-24T04:21:02;9.50;99.90
52669;DHT22;59898;52.786;6.892;2023-04-24T04:24:23;9.50;99.90
52669;DHT22;59898;52.786;6.892;2023-04-24T04:27:44;9.50;99.90
52669;DHT22;59898;52.786;6.892;2023-04-24T04:31:05;9.40;99.90
52669;DHT22;59898;52.786;6.892;2023-04-24T04:34:28;9.40;99.90
52669;DHT22;59898;52.786;6.892;2023-04-24T04:37:49;9.40;99.90
52669;DHT22;59898;52.786;6.892;2023-04-24T04:41:09;9.30;99.90
52669;DHT22;59898;52.786;6.892;2023-04-24T04:44:31;9.30;99.90
52669;DHT22;59898;52.786;6.892;2023-04-24T04:47:51;9.20;99.90
52669;DHT22;59898;52.786;6.892;2023-04-24T04:51:12;9.30;99.90
52669;DHT22;59898;52.786;6.892;2023-04-24T04:54:33;9.30;99.90
52669;DHT22;59898;52.786;6.892;2023-04-24T04:57:53;9.30;99.90
52669;DHT22;59898;52.786;6.892;2023-04-24T05:01:15;9.20;99.90
52669;DHT22;59898;52.786;6.892;2023-04-24T05:04:36;9.30;99.90
52669;DHT22;59898;52.786;6.892;2023-04-24T05:07:56;9.30;99.90
52669;DHT22;59898;52.786;6.892;2023-04-24T05:11:17;9.30;99.90
52669;DHT22;59898;52.786;6.892;2023-04-24T05:14:37;9.20;99.90
52669;DHT22;59898;52.786;6.892;2023-04-24T05:17:59;9.30;99.90
52669;DHT22;59898;52.786;6.892;2023-04-24T05:21:20;9.30;99.90
52669;DHT22;59898;52.786;6.892;2023-04-24T05:24:41;9.30;99.90
52669;DHT22;59898;52.786;6.892;2023-04-24T05:28:01;9.30;99.90
52669;DHT22;59898;52.786;6.892;2023-04-24T05:31:22;9.40;99.90
52669;DHT22;59898;52.786;6.892;2023-04-24T05:34:43;9.40;99.90
52669;DHT22;59898;52.786;6.892;2023-04-24T05:38:03;9.40;99.90
52669;DHT22;59898;52.786;6.892;2023-04-24T05:41:24;9.30;99.90
52669;DHT22;59898;52.786;6.892;2023-04-24T05:44:45;9.30;99.90
52669;DHT22;59898;52.786;6.892;2023-04-24T05:48:05;9.30;99.90
52669;DHT22;59898;52.786;6.892;2023-04-24T05:51:26;9.30;99.90
52669;DHT22;59898;52.786;6.892;2023-04-24T05:54:47;9.30;99.90
52669;DHT22;59898;52.786;6.892;2023-04-24T05:58:07;9.40;99.90
52669;DHT22;59898;52.786;6.892;2023-04-24T06:01:28;9.30;99.90
52669;DHT22;59898;52.786;6.892;2023-04-24T06:04:48;9.40;99.90
52669;DHT22;59898;52.786;6.892;2023-04-24T06:08:09;9.40;99.90
52669;DHT22;59898;52.786;6.892;2023-04-24T06:11:30;9.30;99.90
52669;DHT22;59898;52.786;6.892;2023-04-24T06:14:51;9.30;99.90
52669;DHT22;59898;52.786;6.892;2023-04-24T06:18:11;9.30;99.90
52669;DHT22;59898;52.786;6.892;2023-04-24T06:21:32;9.20;99.90
52669;DHT22;59898;52.786;6.892;2023-04-24T06:24:53;9.30;99.90
52669;DHT22;59898;52.786;6.892;2023-04-24T06:28:13;10.10;99.90
52669;DHT22;59898;52.786;6.892;2023-04-24T06:31:34;9.10;99.90
52669;DHT22;59898;52.786;6.892;2023-04-24T06:34:57;9.10;99.90
52669;DHT22;59898;52.786;6.892;2023-04-24T06:38:17;9.10;99.90
52669;DHT22;59898;52.786;6.892;2023-04-24T06:41:38;9.20;99.90
52669;DHT22;59898;52.786;6.892;2023-04-24T06:45:00;9.10;99.90
52669;DHT22;59898;52.786;6.892;2023-04-24T06:48:20;9.10;99.90
52669;DHT22;59898;52.786;6.892;2023-04-24T06:51:41;9.80;99.90
52669;DHT22;59898;52.786;6.892;2023-04-24T06:55:02;9.20;99.90
52669;DHT22;59898;52.786;6.892;2023-04-24T06:58:24;9.20;99.90
52669;DHT22;59898;52.786;6.892;2023-04-24T07:01:45;9.20;99.90
52669;DHT22;59898;52.786;6.892;2023-04-24T07:05:06;9.20;99.90
52669;DHT22;59898;52.786;6.892;2023-04-24T07:08:29;9.30;99.90
52669;DHT22;59898;52.786;6.892;2023-04-24T07:11:51;9.30;99.90
52669;DHT22;59898;52.786;6.892;2023-04-24T07:15:11;9.40;99.90
52669;DHT22;59898;52.786;6.892;2023-04-24T07:18:33;9.40;99.90
52669;DHT22;59898;52.786;6.892;2023-04-24T07:21:53;9.40;99.90
52669;DHT22;59898;52.786;6.892;2023-04-24T07:25:15;9.40;99.90
52669;DHT22;59898;52.786;6.892;2023-04-24T07:28:36;9.40;99.90
52669;DHT22;59898;52.786;6.892;2023-04-24T07:31:57;9.50;99.90
52669;DHT22;59898;52.786;6.892;2023-04-24T07:35:18;9.50;99.90
52669;DHT22;59898;52.786;6.892;2023-04-24T07:38:38;9.60;99.90
52669;DHT22;59898;52.786;6.892;2023-04-24T07:41:59;9.70;99.90
52669;DHT22;59898;52.786;6.892;2023-04-24T07:45:20;9.70;99.90
52669;DHT22;59898;52.786;6.892;2023-04-24T07:48:40;9.70;99.90
52669;DHT22;59898;52.786;6.892;2023-04-24T07:52:01;9.70;99.90
52669;DHT22;59898;52.786;6.892;2023-04-24T07:55:22;9.80;99.90
52669;DHT22;59898;52.786;6.892;2023-04-24T07:58:43;9.80;99.90
52669;DHT22;59898;52.786;6.892;2023-04-24T08:02:04;9.80;99.90
52669;DHT22;59898;52.786;6.892;2023-04-24T08:05:24;9.90;99.90
52669;DHT22;59898;52.786;6.892;2023-04-24T08:08:47;9.90;99.90
52669;DHT22;59898;52.786;6.892;2023-04-24T08:12:08;9.90;99.90
52669;DHT22;59898;52.786;6.892;2023-04-24T08:15:28;9.90;99.90
52669;DHT22;59898;52.786;6.892;2023-04-24T08:18:49;10.50;99.90
52669;DHT22;59898;52.786;6.892;2023-04-24T08:22:10;9.90;99.90
52669;DHT22;59898;52.786;6.892;2023-04-24T08:25:31;9.90;99.90
52669;DHT22;59898;52.786;6.892;2023-04-24T08:28:51;10.00;99.90
52669;DHT22;59898;52.786;6.892;2023-04-24T08:32:12;9.90;99.90
52669;DHT22;59898;52.786;6.892;2023-04-24T08:35:32;10.00;99.90
52669;DHT22;59898;52.786;6.892;2023-04-24T08:38:53;9.90;99.90
52669;DHT22;59898;52.786;6.892;2023-04-24T08:42:14;9.90;99.90
52669;DHT22;59898;52.786;6.892;2023-04-24T08:45:36;9.90;99.90
52669;DHT22;59898;52.786;6.892;2023-04-24T08:48:57;9.90;99.90
52669;DHT22;59898;52.786;6.892;2023-04-24T08:52:18;9.80;99.90
52669;DHT22;59898;52.786;6.892;2023-04-24T08:55:41;9.80;99.90
52669;DHT22;59898;52.786;6.892;2023-04-24T08:59:05;9.80;99.90
52669;DHT22;59898;52.786;6.892;2023-04-24T09:02:26;9.80;99.90
52669;DHT22;59898;52.786;6.892;2023-04-24T09:05:47;9.80;99.90
52669;DHT22;59898;52.786;6.892;2023-04-24T09:09:09;9.70;99.90
52669;DHT22;59898;52.786;6.892;2023-04-24T09:12:32;9.70;99.90
52669;DHT22;59898;52.786;6.892;2023-04-24T09:15:53;9.70;99.90
52669;DHT22;59898;52.786;6.892;2023-04-24T09:19:14;9.70;99.90
52669;DHT22;59898;52.786;6.892;2023-04-24T09:22:35;9.70;99.90
52669;DHT22;59898;52.786;6.892;2023-04-24T09:25:56;9.70;99.90
52669;DHT22;59898;52.786;6.892;2023-04-24T09:29:18;9.70;99.90
52669;DHT22;59898;52.786;6.892;2023-04-24T09:32:38;9.70;99.90
52669;DHT22;59898;52.786;6.892;2023-04-24T09:35:59;9.70;99.90
52669;DHT22;59898;52.786;6.892;2023-04-24T09:39:20;9.70;99.90
52669;DHT22;59898;52.786;6.892;2023-04-24T09:42:52;9.60;99.90
52669;DHT22;59898;52.786;6.892;2023-04-24T09:46:12;9.60;99.90
52669;DHT22;59898;52.786;6.892;2023-04-24T09:49:33;9.50;99.90
52669;DHT22;59898;52.786;6.892;2023-04-24T09:53:01;9.30;99.90
52669;DHT22;59898;52.786;6.892;2023-04-24T09:56:25;9.40;99.90
52669;DHT22;59898;52.786;6.892;2023-04-24T09:59:46;9.40;99.90
52669;DHT22;59898;52.786;6.892;2023-04-24T10:03:07;9.40;99.90
52669;DHT22;59898;52.786;6.892;2023-04-24T10:06:34;9.40;99.90
52669;DHT22;59898;52.786;6.892;2023-04-24T10:09:55;9.40;99.90
52669;DHT22;59898;52.786;6.892;2023-04-24T10:13:16;9.40;99.90
52669;DHT22;59898;52.786;6.892;2023-04-24T10:16:37;9.40;99.90
52669;DHT22;59898;52.786;6.892;2023-04-24T10:20:00;9.40;99.90
52669;DHT22;59898;52.786;6.892;2023-04-24T10:23:22;9.30;99.90
52669;DHT22;59898;52.786;6.892;2023-04-24T10:26:44;9.40;99.90
52669;DHT22;59898;52.786;6.892;2023-04-24T10:30:06;9.30;99.90
52669;DHT22;59898;52.786;6.892;2023-04-24T10:33:29;9.30;99.90
52669;DHT22;59898;52.786;6.892;2023-04-24T10:36:52;9.30;99.90
52669;DHT22;59898;52.786;6.892;2023-04-24T10:40:17;9.30;99.90
52669;DHT22;59898;52.786;6.892;2023-04-24T10:43:40;9.30;99.90
52669;DHT22;59898;52.786;6.892;2023-04-24T10:47:01;9.30;99.90
52669;DHT22;59898;52.786;6.892;2023-04-24T10:50:23;9.40;99.90
52669;DHT22;59898;52.786;6.892;2023-04-24T10:53:44;9.40;99.90
52669;DHT22;59898;52.786;6.892;2023-04-24T11:00:44;9.50;99.90
52669;DHT22;59898;52.786;6.892;2023-04-24T11:04:05;9.50;99.90
52669;DHT22;59898;52.786;6.892;2023-04-24T11:07:25;9.40;99.90
52669;DHT22;59898;52.786;6.892;2023-04-24T11:10:53;9.50;99.90
52669;DHT22;59898;52.786;6.892;2023-04-24T11:14:15;9.40;99.90
52669;DHT22;59898;52.786;6.892;2023-04-24T11:17:38;9.40;99.90
52669;DHT22;59898;52.786;6.892;2023-04-24T11:21:10;9.30;99.90
52669;DHT22;59898;52.786;6.892;2023-04-24T11:28:03;9.30;99.90
52669;DHT22;59898;52.786;6.892;2023-04-24T11:31:40;9.30;99.90
52669;DHT22;59898;52.786;6.892;2023-04-24T11:35:16;9.40;99.90
52669;DHT22;59898;52.786;6.892;2023-04-24T11:38:37;9.40;99.90
52669;DHT22;59898;52.786;6.892;2023-04-24T11:42:03;9.40;99.90
52669;DHT22;59898;52.786;6.892;2023-04-24T11:45:25;9.40;99.90
52669;DHT22;59898;52.786;6.892;2023-04-24T11:48:46;9.30;99.90
52669;DHT22;59898;52.786;6.892;2023-04-24T11:52:07;9.30;99.90
52669;DHT22;59898;52.786;6.892;2023-04-24T11:55:28;9.30;99.90
52669;DHT22;59898;52.786;6.892;2023-04-24T11:58:52;9.30;99.90
52669;DHT22;59898;52.786;6.892;2023-04-24T12:02:23;9.30;99.90
52669;DHT22;59898;52.786;6.892;2023-04-24T12:05:44;9.40;99.90
52669;DHT22;59898;52.786;6.892;2023-04-24T12:09:05;9.40;99.90
52669;DHT22;59898;52.786;6.892;2023-04-24T12:12:28;9.50;99.90
52669;DHT22;59898;52.786;6.892;2023-04-24T12:15:50;9.60;99.90
52669;DHT22;59898;52.786;6.892;2023-04-24T12:19:11;9.70;99.90
52669;DHT22;59898;52.786;6.892;2023-04-24T12:26:08;9.90;99.90
52669;DHT22;59898;52.786;6.892;2023-04-24T12:29:28;9.90;99.90
52669;DHT22;59898;52.786;6.892;2023-04-24T12:32:49;9.90;99.90
52669;DHT22;59898;52.786;6.892;2023-04-24T12:36:12;9.80;99.90
52669;DHT22;59898;52.786;6.892;2023-04-24T12:39:33;9.70;99.90
52669;DHT22;59898;52.786;6.892;2023-04-24T12:42:53;9.60;99.90
52669;DHT22;59898;52.786;6.892;2023-04-24T12:46:14;9.60;99.90
52669;DHT22;59898;52.786;6.892;2023-04-24T12:49:34;9.50;99.90
52669;DHT22;59898;52.786;6.892;2023-04-24T12:52:55;9.50;99.90
52669;DHT22;59898;52.786;6.892;2023-04-24T12:56:15;9.40;99.90
52669;DHT22;59898;52.786;6.892;2023-04-24T12:59:37;9.40;99.90
52669;DHT22;59898;52.786;6.892;2023-04-24T13:02:59;9.40;99.90
52669;DHT22;59898;52.786;6.892;2023-04-24T13:06:20;9.50;99.90
52669;DHT22;59898;52.786;6.892;2023-04-24T13:09:41;9.40;99.90
52669;DHT22;59898;52.786;6.892;2023-04-24T13:13:02;9.40;99.90
52669;DHT22;59898;52.786;6.892;2023-04-24T13:16:23;9.40;99.90
52669;DHT22;59898;52.786;6.892;2023-04-24T13:19:44;9.40;99.90
52669;DHT22;59898;52.786;6.892;2023-04-24T13:23:05;9.50;99.90
52669;DHT22;59898;52.786;6.892;2023-04-24T13:26:26;9.60;99.90
52669;DHT22;59898;52.786;6.892;2023-04-24T13:29:46;9.60;99.90
52669;DHT22;59898;52.786;6.892;2023-04-24T13:33:07;9.60;99.90
52669;DHT22;59898;52.786;6.892;2023-04-24T13:36:27;9.60;99.90
52669;DHT22;59898;52.786;6.892;2023-04-24T13:39:48;9.50;99.90
52669;DHT22;59898;52.786;6.892;2023-04-24T13:43:08;9.40;99.90
52669;DHT22;59898;52.786;6.892;2023-04-24T13:46:29;9.40;99.90
52669;DHT22;59898;52.786;6.892;2023-04-24T13:49:50;9.30;99.90
52669;DHT22;59898;52.786;6.892;2023-04-24T13:53:11;9.20;99.90
52669;DHT22;59898;52.786;6.892;2023-04-24T13:56:32;9.30;99.90
52669;DHT22;59898;52.786;6.892;2023-04-24T13:59:52;9.30;99.90
52669;DHT22;59898;52.786;6.892;2023-04-24T14:03:13;9.40;99.90
52669;DHT22;59898;52.786;6.892;2023-04-24T14:06:34;9.50;99.90
52669;DHT22;59898;52.786;6.892;2023-04-24T14:09:55;9.50;99.90
52669;DHT22;59898;52.786;6.892;2023-04-24T14:13:16;9.40;99.90
52669;DHT22;59898;52.786;6.892;2023-04-24T14:16:36;9.40;99.90
52669;DHT22;59898;52.786;6.892;2023-04-24T14:19:57;9.40;99.90
52669;DHT22;59898;52.786;6.892;2023-04-24T14:23:20;9.30;99.90
52669;DHT22;59898;52.786;6.892;2023-04-24T14:26:40;9.20;99.90
52669;DHT22;59898;52.786;6.892;2023-04-24T14:30:01;9.10;99.90
52669;DHT22;59898;52.786;6.892;2023-04-24T14:33:22;9.00;99.90
52669;DHT22;59898;52.786;6.892;2023-04-24T14:36:43;9.00;99.90
52669;DHT22;59898;52.786;6.892;2023-04-24T14:40:04;8.90;99.90
52669;DHT22;59898;52.786;6.892;2023-04-24T14:43:26;8.90;99.90
52669;DHT22;59898;52.786;6.892;2023-04-24T14:46:48;8.90;99.90
52669;DHT22;59898;52.786;6.892;2023-04-24T14:50:09;9.00;99.90
52669;DHT22;59898;52.786;6.892;2023-04-24T14:53:29;9.00;99.90
52669;DHT22;59898;52.786;6.892;2023-04-24T14:56:50;9.10;99.90
52669;DHT22;59898;52.786;6.892;2023-04-24T15:00:11;9.10;99.90
52669;DHT22;59898;52.786;6.892;2023-04-24T15:03:32;9.10;99.90
52669;DHT22;59898;52.786;6.892;2023-04-24T15:06:55;9.20;99.90
52669;DHT22;59898;52.786;6.892;2023-04-24T15:10:16;9.30;99.90
52669;DHT22;59898;52.786;6.892;2023-04-24T15:13:37;9.20;99.90
52669;DHT22;59898;52.786;6.892;2023-04-24T15:16:58;9.30;99.90
52669;DHT22;59898;52.786;6.892;2023-04-24T15:20:19;9.30;99.90
52669;DHT22;59898;52.786;6.892;2023-04-24T15:23:39;9.20;99.90
52669;DHT22;59898;52.786;6.892;2023-04-24T15:27:00;9.20;99.90
52669;DHT22;59898;52.786;6.892;2023-04-24T15:30:21;9.20;99.90
52669;DHT22;59898;52.786;6.892;2023-04-24T15:33:42;9.20;99.90
52669;DHT22;59898;52.786;6.892;2023-04-24T15:37:03;9.20;99.90
52669;DHT22;59898;52.786;6.892;2023-04-24T15:40:23;9.20;99.90
52669;DHT22;59898;52.786;6.892;2023-04-24T15:43:44;9.30;99.90
52669;DHT22;59898;52.786;6.892;2023-04-24T15:47:05;9.30;99.90
52669;DHT22;59898;52.786;6.892;2023-04-24T15:50:26;9.40;99.90
52669;DHT22;59898;52.786;6.892;2023-04-24T15:53:46;9.50;99.90
52669;DHT22;59898;52.786;6.892;2023-04-24T15:57:07;9.60;99.90
52669;DHT22;59898;52.786;6.892;2023-04-24T16:00:28;9.60;99.90
52669;DHT22;59898;52.786;6.892;2023-04-24T16:03:53;9.60;99.90
52669;DHT22;59898;52.786;6.892;2023-04-24T16:07:14;9.50;99.90
52669;DHT22;59898;52.786;6.892;2023-04-24T16:10:37;9.30;99.90
52669;DHT22;59898;52.786;6.892;2023-04-24T16:13:57;9.20;99.90
52669;DHT22;59898;52.786;6.892;2023-04-24T16:17:18;9.10;99.90
52669;DHT22;59898;52.786;6.892;2023-04-24T16:20:39;9.10;99.90
52669;DHT22;59898;52.786;6.892;2023-04-24T16:23:59;9.10;99.90
52669;DHT22;59898;52.786;6.892;2023-04-24T16:27:20;9.20;99.90
52669;DHT22;59898;52.786;6.892;2023-04-24T16:30:40;9.20;99.90
52669;DHT22;59898;52.786;6.892;2023-04-24T16:34:01;9.20;99.90
52669;DHT22;59898;52.786;6.892;2023-04-24T16:37:22;9.30;99.90
52669;DHT22;59898;52.786;6.892;2023-04-24T16:40:43;9.40;99.90
52669;DHT22;59898;52.786;6.892;2023-04-24T16:44:03;9.50;99.90
52669;DHT22;59898;52.786;6.892;2023-04-24T16:47:24;9.50;99.90
52669;DHT22;59898;52.786;6.892;2023-04-24T16:50:45;9.50;99.90
52669;DHT22;59898;52.786;6.892;2023-04-24T16:54:06;9.50;99.90
52669;DHT22;59898;52.786;6.892;2023-04-24T16:57:27;9.50;99.90
52669;DHT22;59898;52.786;6.892;2023-04-24T17:00:47;9.60;99.90
52669;DHT22;59898;52.786;6.892;2023-04-24T17:04:09;9.60;99.90
52669;DHT22;59898;52.786;6.892;2023-04-24T17:07:30;9.50;99.90
52669;DHT22;59898;52.786;6.892;2023-04-24T17:10:51;9.40;99.90
52669;DHT22;59898;52.786;6.892;2023-04-24T17:14:11;9.30;99.90
52669;DHT22;59898;52.786;6.892;2023-04-24T17:17:32;9.30;99.90
52669;DHT22;59898;52.786;6.892;2023-04-24T17:20:53;9.20;99.90
52669;DHT22;59898;52.786;6.892;2023-04-24T17:24:13;9.10;99.90
52669;DHT22;59898;52.786;6.892;2023-04-24T17:27:34;9.10;99.90
52669;DHT22;59898;52.786;6.892;2023-04-24T17:30:55;9.10;99.90
52669;DHT22;59898;52.786;6.892;2023-04-24T17:34:19;9.10;99.90
52669;DHT22;59898;52.786;6.892;2023-04-24T17:37:39;9.10;99.90
52669;DHT22;59898;52.786;6.892;2023-04-24T17:41:00;9.00;99.90
52669;DHT22;59898;52.786;6.892;2023-04-24T17:44:21;9.00;99.90
52669;DHT22;59898;52.786;6.892;2023-04-24T17:47:41;8.90;99.90
52669;DHT22;59898;52.786;6.892;2023-04-24T17:51:02;8.80;99.90
52669;DHT22;59898;52.786;6.892;2023-04-24T17:54:22;8.80;99.90
52669;DHT22;59898;52.786;6.892;2023-04-24T17:57:43;8.80;99.90
52669;DHT22;59898;52.786;6.892;2023-04-24T18:01:04;8.80;99.90
52669;DHT22;59898;52.786;6.892;2023-04-24T18:04:25;8.80;99.90
52669;DHT22;59898;52.786;6.892;2023-04-24T18:07:45;8.80;99.90
52669;DHT22;59898;52.786;6.892;2023-04-24T18:11:06;8.80;99.90
52669;DHT22;59898;52.786;6.892;2023-04-24T18:14:26;9.00;99.90
52669;DHT22;59898;52.786;6.892;2023-04-24T18:17:48;8.70;99.90
52669;DHT22;59898;52.786;6.892;2023-04-24T18:21:08;8.70;99.90
52669;DHT22;59898;52.786;6.892;2023-04-24T18:24:29;8.70;99.90
52669;DHT22;59898;52.786;6.892;2023-04-24T18:27:49;8.60;99.90
52669;DHT22;59898;52.786;6.892;2023-04-24T18:31:10;8.70;99.90
52669;DHT22;59898;52.786;6.892;2023-04-24T18:34:30;8.60;99.90
52669;DHT22;59898;52.786;6.892;2023-04-24T18:37:51;8.50;99.90
52669;DHT22;59898;52.786;6.892;2023-04-24T18:41:12;8.40;99.90
52669;DHT22;59898;52.786;6.892;2023-04-24T18:44:33;8.30;99.90
52669;DHT22;59898;52.786;6.892;2023-04-24T18:47:54;8.20;99.90
52669;DHT22;59898;52.786;6.892;2023-04-24T18:51:15;8.10;99.90
52669;DHT22;59898;52.786;6.892;2023-04-24T18:54:35;7.70;99.90
52669;DHT22;59898;52.786;6.892;2023-04-24T18:57:56;8.00;99.90
52669;DHT22;59898;52.786;6.892;2023-04-24T19:01:16;8.00;99.90
52669;DHT22;59898;52.786;6.892;2023-04-24T19:04:37;7.90;99.90
52669;DHT22;59898;52.786;6.892;2023-04-24T19:07:58;7.90;99.90
52669;DHT22;59898;52.786;6.892;2023-04-24T19:11:18;7.90;99.90
52669;DHT22;59898;52.786;6.892;2023-04-24T19:14:39;7.80;99.90
52669;DHT22;59898;52.786;6.892;2023-04-24T19:18:00;7.90;99.90
52669;DHT22;59898;52.786;6.892;2023-04-24T19:21:20;7.90;99.90
52669;DHT22;59898;52.786;6.892;2023-04-24T19:24:42;7.90;99.90
52669;DHT22;59898;52.786;6.892;2023-04-24T19:28:02;7.90;99.90
52669;DHT22;59898;52.786;6.892;2023-04-24T19:31:26;8.00;99.90
52669;DHT22;59898;52.786;6.892;2023-04-24T19:34:46;8.00;99.90
52669;DHT22;59898;52.786;6.892;2023-04-24T19:38:07;8.00;99.90
52669;DHT22;59898;52.786;6.892;2023-04-24T19:41:28;8.00;99.90
52669;DHT22;59898;52.786;6.892;2023-04-24T19:44:48;8.00;99.90
52669;DHT22;59898;52.786;6.892;2023-04-24T19:48:09;8.10;99.90
52669;DHT22;59898;52.786;6.892;2023-04-24T19:51:29;8.00;99.90
52669;DHT22;59898;52.786;6.892;2023-04-24T19:54:51;8.10;99.90
52669;DHT22;59898;52.786;6.892;2023-04-24T19:58:12;8.10;99.90
52669;DHT22;59898;52.786;6.892;2023-04-24T20:01:32;8.10;99.90
52669;DHT22;59898;52.786;6.892;2023-04-24T20:04:53;8.10;99.90
52669;DHT22;59898;52.786;6.892;2023-04-24T20:08:13;8.10;99.90
52669;DHT22;59898;52.786;6.892;2023-04-24T20:11:34;8.20;99.90
52669;DHT22;59898;52.786;6.892;2023-04-24T20:14:55;8.20;99.90
52669;DHT22;59898;52.786;6.892;2023-04-24T20:18:15;8.10;99.90
52669;DHT22;59898;52.786;6.892;2023-04-24T20:21:36;8.10;99.90
52669;DHT22;59898;52.786;6.892;2023-04-24T20:24:56;8.20;99.90
52669;DHT22;59898;52.786;6.892;2023-04-24T20:28:17;8.20;99.90
52669;DHT22;59898;52.786;6.892;2023-04-24T20:31:38;8.20;99.90
52669;DHT22;59898;52.786;6.892;2023-04-24T20:34:58;8.20;99.90
52669;DHT22;59898;52.786;6.892;2023-04-24T20:38:19;8.20;99.90
52669;DHT22;59898;52.786;6.892;2023-04-24T20:41:41;8.20;99.90
52669;DHT22;59898;52.786;6.892;2023-04-24T20:45:03;8.20;99.90
52669;DHT22;59898;52.786;6.892;2023-04-24T20:48:24;8.20;99.90
52669;DHT22;59898;52.786;6.892;2023-04-24T20:51:45;8.20;99.90
52669;DHT22;59898;52.786;6.892;2023-04-24T20:55:06;8.20;99.90
52669;DHT22;59898;52.786;6.892;2023-04-24T20:58:27;8.20;99.90
52669;DHT22;59898;52.786;6.892;2023-04-24T21:01:48;8.20;99.90
52669;DHT22;59898;52.786;6.892;2023-04-24T21:05:09;8.20;99.90
52669;DHT22;59898;52.786;6.892;2023-04-24T21:08:30;8.20;99.90
52669;DHT22;59898;52.786;6.892;2023-04-24T21:11:51;8.20;99.90
52669;DHT22;59898;52.786;6.892;2023-04-24T21:15:11;8.20;99.90
52669;DHT22;59898;52.786;6.892;2023-04-24T21:18:32;8.10;99.90
52669;DHT22;59898;52.786;6.892;2023-04-24T21:21:52;8.20;99.90
52669;DHT22;59898;52.786;6.892;2023-04-24T21:25:13;8.20;99.90
52669;DHT22;59898;52.786;6.892;2023-04-24T21:28:33;8.10;99.90
52669;DHT22;59898;52.786;6.892;2023-04-24T21:31:54;8.20;99.90
52669;DHT22;59898;52.786;6.892;2023-04-24T21:35:15;8.20;99.90
52669;DHT22;59898;52.786;6.892;2023-04-24T21:38:35;8.20;99.90
52669;DHT22;59898;52.786;6.892;2023-04-24T21:41:56;8.10;99.90